sensor_id;sensor_type;location;lat;lon;timestamp;pressure;altitude;pressure_sealevel;temperature;humidity
74778;BME280;63298;53.164;8.610;2023-04-06T00:00:08;102118.81;;;6.41;58.89
74778;BME280;63298;53.164;8.610;2023-04-06T00:02:33;102112.38;;;6.34;58.99
74778;BME280;63298;53.164;8.610;2023-04-06T00:04:59;102116.50;;;6.30;58.68
74778;BME280;63298;53.164;8.610;2023-04-06T00:07:24;102116.84;;;6.27;58.57
74778;BME280;63298;53.164;8.610;2023-04-06T00:09:49;102116.66;;;6.29;58.59
74778;BME280;63298;53.164;8.610;2023-04-06T00:12:15;102113.13;;;6.20;59.50
74778;BME280;63298;53.164;8.610;2023-04-06T00:14:40;102113.81;;;6.14;59.17
74778;BME280;63298;53.164;8.610;2023-04-06T00:17:05;102107.00;;;6.10;59.80
74778;BME280;63298;53.164;8.610;2023-04-06T00:19:31;102108.38;;;6.06;59.01
74778;BME280;63298;53.164;8.610;2023-04-06T00:21:56;102097.09;;;6.01;59.00
74778;BME280;63298;53.164;8.610;2023-04-06T00:24:21;102107.84;;;6.02;58.98
74778;BME280;63298;53.164;8.610;2023-04-06T00:26:47;102098.28;;;5.98;58.89
74778;BME280;63298;53.164;8.610;2023-04-06T00:29:13;102093.84;;;5.97;58.86
74778;BME280;63298;53.164;8.610;2023-04-06T00:31:39;102085.97;;;5.94;58.53
74778;BME280;63298;53.164;8.610;2023-04-06T00:34:05;102096.06;;;5.94;59.17
74778;BME280;63298;53.164;8.610;2023-04-06T00:36:30;102083.78;;;5.90;58.91
74778;BME280;63298;53.164;8.610;2023-04-06T00:38:56;102085.13;;;5.86;60.19
74778;BME280;63298;53.164;8.610;2023-04-06T00:41:21;102082.22;;;5.79;59.92
74778;BME280;63298;53.164;8.610;2023-04-06T00:43:47;102082.22;;;5.79;59.94
74778;BME280;63298;53.164;8.610;2023-04-06T00:46:12;102083.09;;;5.80;59.08
74778;BME280;63298;53.164;8.610;2023-04-06T00:48:38;102088.56;;;5.80;59.82
74778;BME280;63298;53.164;8.610;2023-04-06T00:51:04;102075.25;;;5.77;59.24
74778;BME280;63298;53.164;8.610;2023-04-06T00:53:29;102073.84;;;5.73;59.68
74778;BME280;63298;53.164;8.610;2023-04-06T00:55:55;102072.16;;;5.72;59.46
74778;BME280;63298;53.164;8.610;2023-04-06T00:58:20;102071.31;;;5.71;59.15
74778;BME280;63298;53.164;8.610;2023-04-06T01:00:46;102067.56;;;5.72;59.45
74778;BME280;63298;53.164;8.610;2023-04-06T01:03:12;102069.75;;;5.69;59.14
74778;BME280;63298;53.164;8.610;2023-04-06T01:05:40;102061.75;;;5.67;59.35
74778;BME280;63298;53.164;8.610;2023-04-06T01:08:07;102056.75;;;5.71;59.09
74778;BME280;63298;53.164;8.610;2023-04-06T01:10:32;102056.28;;;5.67;59.41
74778;BME280;63298;53.164;8.610;2023-04-06T01:12:57;102061.06;;;5.65;59.57
74778;BME280;63298;53.164;8.610;2023-04-06T01:15:23;102045.31;;;5.59;59.58
74778;BME280;63298;53.164;8.610;2023-04-06T01:17:49;102056.59;;;5.64;59.46
74778;BME280;63298;53.164;8.610;2023-04-06T01:20:15;102057.63;;;5.63;59.56
74778;BME280;63298;53.164;8.610;2023-04-06T01:22:40;102048.91;;;5.59;59.89
74778;BME280;63298;53.164;8.610;2023-04-06T01:25:06;102053.53;;;5.59;60.07
74778;BME280;63298;53.164;8.610;2023-04-06T01:27:32;102054.38;;;5.59;59.82
74778;BME280;63298;53.164;8.610;2023-04-06T01:29:59;102050.31;;;5.55;59.91
74778;BME280;63298;53.164;8.610;2023-04-06T01:32:25;102052.88;;;5.57;59.52
74778;BME280;63298;53.164;8.610;2023-04-06T01:34:50;102052.00;;;5.56;59.43
74778;BME280;63298;53.164;8.610;2023-04-06T01:37:15;102050.66;;;5.52;59.50
74778;BME280;63298;53.164;8.610;2023-04-06T01:39:42;102044.34;;;5.52;59.71
74778;BME280;63298;53.164;8.610;2023-04-06T01:42:08;102046.00;;;5.53;59.53
74778;BME280;63298;53.164;8.610;2023-04-06T01:44:33;102047.06;;;5.52;60.08
74778;BME280;63298;53.164;8.610;2023-04-06T01:46:59;102037.31;;;5.49;59.80
74778;BME280;63298;53.164;8.610;2023-04-06T01:49:24;102041.94;;;5.49;60.02
74778;BME280;63298;53.164;8.610;2023-04-06T01:51:50;102035.78;;;5.47;59.88
74778;BME280;63298;53.164;8.610;2023-04-06T01:54:16;102041.44;;;5.45;59.92
74778;BME280;63298;53.164;8.610;2023-04-06T01:56:41;102030.47;;;5.45;59.29
74778;BME280;63298;53.164;8.610;2023-04-06T01:59:07;102026.38;;;5.41;59.96
74778;BME280;63298;53.164;8.610;2023-04-06T02:01:32;102030.84;;;5.42;60.04
74778;BME280;63298;53.164;8.610;2023-04-06T02:03:57;102030.00;;;5.42;60.13
74778;BME280;63298;53.164;8.610;2023-04-06T02:06:23;102018.72;;;5.37;60.52
74778;BME280;63298;53.164;8.610;2023-04-06T02:08:48;102017.69;;;5.38;59.67
74778;BME280;63298;53.164;8.610;2023-04-06T02:11:13;102007.75;;;5.29;59.98
74778;BME280;63298;53.164;8.610;2023-04-06T02:13:39;102014.63;;;5.33;60.36
74778;BME280;63298;53.164;8.610;2023-04-06T02:16:04;102019.56;;;5.29;60.18
74778;BME280;63298;53.164;8.610;2023-04-06T02:18:30;102010.00;;;5.25;60.06
74778;BME280;63298;53.164;8.610;2023-04-06T02:20:56;102013.25;;;5.20;60.80
74778;BME280;63298;53.164;8.610;2023-04-06T02:23:21;102013.41;;;5.19;60.33
74778;BME280;63298;53.164;8.610;2023-04-06T02:25:46;102006.75;;;5.13;60.65
74778;BME280;63298;53.164;8.610;2023-04-06T02:28:12;102017.34;;;5.08;60.08
74778;BME280;63298;53.164;8.610;2023-04-06T02:30:37;102003.72;;;5.00;60.11
74778;BME280;63298;53.164;8.610;2023-04-06T02:33:03;101996.88;;;4.96;60.56
74778;BME280;63298;53.164;8.610;2023-04-06T02:35:31;102006.09;;;4.95;60.74
74778;BME280;63298;53.164;8.610;2023-04-06T02:37:56;102000.28;;;4.90;60.91
74778;BME280;63298;53.164;8.610;2023-04-06T02:40:22;102002.16;;;4.90;60.91
74778;BME280;63298;53.164;8.610;2023-04-06T02:42:48;101998.06;;;4.86;61.14
74778;BME280;63298;53.164;8.610;2023-04-06T02:45:13;101996.34;;;4.85;61.11
74778;BME280;63298;53.164;8.610;2023-04-06T02:47:39;102003.19;;;4.81;60.73
74778;BME280;63298;53.164;8.610;2023-04-06T02:50:04;101993.28;;;4.79;61.09
74778;BME280;63298;53.164;8.610;2023-04-06T02:52:31;102000.47;;;4.81;60.82
74778;BME280;63298;53.164;8.610;2023-04-06T02:54:57;102000.13;;;4.75;60.75
74778;BME280;63298;53.164;8.610;2023-04-06T02:57:22;101995.34;;;4.69;61.18
74778;BME280;63298;53.164;8.610;2023-04-06T02:59:47;101993.97;;;4.65;60.85
74778;BME280;63298;53.164;8.610;2023-04-06T03:02:13;101999.09;;;4.60;61.12
74778;BME280;63298;53.164;8.610;2023-04-06T03:04:38;101992.97;;;4.58;61.67
74778;BME280;63298;53.164;8.610;2023-04-06T03:07:04;101990.38;;;4.57;60.55
74778;BME280;63298;53.164;8.610;2023-04-06T03:09:30;101985.28;;;4.54;60.90
74778;BME280;63298;53.164;8.610;2023-04-06T03:11:55;101986.09;;;4.54;60.79
74778;BME280;63298;53.164;8.610;2023-04-06T03:14:24;101994.50;;;4.53;61.39
74778;BME280;63298;53.164;8.610;2023-04-06T03:16:58;101984.38;;;4.45;61.34
74778;BME280;63298;53.164;8.610;2023-04-06T03:19:24;101986.81;;;4.48;61.12
74778;BME280;63298;53.164;8.610;2023-04-06T03:21:49;101995.16;;;4.47;61.14
74778;BME280;63298;53.164;8.610;2023-04-06T03:24:15;101987.97;;;4.46;60.91
74778;BME280;63298;53.164;8.610;2023-04-06T03:26:41;101996.00;;;4.47;60.89
74778;BME280;63298;53.164;8.610;2023-04-06T03:29:07;101993.44;;;4.46;60.79
74778;BME280;63298;53.164;8.610;2023-04-06T03:31:32;101985.41;;;4.44;61.23
74778;BME280;63298;53.164;8.610;2023-04-06T03:33:57;101991.72;;;4.45;60.51
74778;BME280;63298;53.164;8.610;2023-04-06T03:36:23;101993.59;;;4.44;60.80
74778;BME280;63298;53.164;8.610;2023-04-06T03:38:48;101993.78;;;4.43;60.60
74778;BME280;63298;53.164;8.610;2023-04-06T03:41:13;101994.97;;;4.40;60.64
74778;BME280;63298;53.164;8.610;2023-04-06T03:43:39;101987.13;;;4.37;61.29
74778;BME280;63298;53.164;8.610;2023-04-06T03:46:04;101990.19;;;4.34;60.63
74778;BME280;63298;53.164;8.610;2023-04-06T03:48:30;101992.94;;;4.34;60.73
74778;BME280;63298;53.164;8.610;2023-04-06T03:50:55;101998.88;;;4.29;61.00
74778;BME280;63298;53.164;8.610;2023-04-06T03:53:20;101995.78;;;4.24;61.53
74778;BME280;63298;53.164;8.610;2023-04-06T03:55:46;101989.16;;;4.19;61.27
74778;BME280;63298;53.164;8.610;2023-04-06T03:58:11;101991.88;;;4.19;61.11
74778;BME280;63298;53.164;8.610;2023-04-06T04:00:37;101993.19;;;4.15;61.05
74778;BME280;63298;53.164;8.610;2023-04-06T04:03:02;101992.03;;;4.09;61.51
74778;BME280;63298;53.164;8.610;2023-04-06T04:05:28;101997.28;;;4.03;61.83
74778;BME280;63298;53.164;8.610;2023-04-06T04:07:53;101994.72;;;4.01;61.32
74778;BME280;63298;53.164;8.610;2023-04-06T04:10:39;101994.53;;;3.95;61.90
74778;BME280;63298;53.164;8.610;2023-04-06T04:13:04;101988.22;;;3.94;61.54
74778;BME280;63298;53.164;8.610;2023-04-06T04:15:30;101992.13;;;3.91;61.29
74778;BME280;63298;53.164;8.610;2023-04-06T04:17:55;101996.56;;;3.92;61.31
74778;BME280;63298;53.164;8.610;2023-04-06T04:20:20;101997.91;;;3.88;61.10
74778;BME280;63298;53.164;8.610;2023-04-06T04:22:46;101991.75;;;3.86;60.98
74778;BME280;63298;53.164;8.610;2023-04-06T04:25:11;101998.22;;;3.85;61.51
74778;BME280;63298;53.164;8.610;2023-04-06T04:27:36;101993.81;;;3.84;61.55
74778;BME280;63298;53.164;8.610;2023-04-06T04:30:02;101996.69;;;3.83;61.61
74778;BME280;63298;53.164;8.610;2023-04-06T04:32:28;101994.13;;;3.81;61.21
74778;BME280;63298;53.164;8.610;2023-04-06T04:34:53;101993.97;;;3.83;61.19
74778;BME280;63298;53.164;8.610;2023-04-06T04:37:19;102002.84;;;3.85;60.91
74778;BME280;63298;53.164;8.610;2023-04-06T04:39:45;102002.00;;;3.84;60.92
74778;BME280;63298;53.164;8.610;2023-04-06T04:42:10;101985.94;;;3.81;61.26
74778;BME280;63298;53.164;8.610;2023-04-06T04:44:36;101988.00;;;3.79;61.02
74778;BME280;63298;53.164;8.610;2023-04-06T04:47:01;101994.78;;;3.75;60.95
74778;BME280;63298;53.164;8.610;2023-04-06T04:49:27;101994.25;;;3.72;61.10
74778;BME280;63298;53.164;8.610;2023-04-06T04:51:52;101992.53;;;3.71;61.17
74778;BME280;63298;53.164;8.610;2023-04-06T04:54:18;101992.03;;;3.67;60.89
74778;BME280;63298;53.164;8.610;2023-04-06T04:56:43;101991.16;;;3.67;60.87
74778;BME280;63298;53.164;8.610;2023-04-06T04:59:08;101993.91;;;3.67;60.78
74778;BME280;63298;53.164;8.610;2023-04-06T05:01:33;101993.75;;;3.68;60.93
74778;BME280;63298;53.164;8.610;2023-04-06T05:03:59;101997.47;;;3.67;60.82
74778;BME280;63298;53.164;8.610;2023-04-06T05:06:24;101984.50;;;3.61;61.03
74778;BME280;63298;53.164;8.610;2023-04-06T05:08:50;102000.06;;;3.69;60.52
74778;BME280;63298;53.164;8.610;2023-04-06T05:11:15;101998.34;;;3.68;60.87
74778;BME280;63298;53.164;8.610;2023-04-06T05:13:41;101990.31;;;3.66;60.98
74778;BME280;63298;53.164;8.610;2023-04-06T05:16:06;101993.53;;;3.62;60.80
74778;BME280;63298;53.164;8.610;2023-04-06T05:18:31;101996.09;;;3.63;60.21
74778;BME280;63298;53.164;8.610;2023-04-06T05:20:57;101997.81;;;3.64;60.74
74778;BME280;63298;53.164;8.610;2023-04-06T05:23:22;101995.25;;;3.63;60.76
74778;BME280;63298;53.164;8.610;2023-04-06T05:25:48;101994.38;;;3.62;60.65
74778;BME280;63298;53.164;8.610;2023-04-06T05:28:14;102002.22;;;3.65;60.81
74778;BME280;63298;53.164;8.610;2023-04-06T05:30:39;101994.22;;;3.64;60.76
74778;BME280;63298;53.164;8.610;2023-04-06T05:33:04;101993.03;;;3.66;60.25
74778;BME280;63298;53.164;8.610;2023-04-06T05:35:30;101990.50;;;3.65;60.61
74778;BME280;63298;53.164;8.610;2023-04-06T05:37:55;101990.50;;;3.65;60.21
74778;BME280;63298;53.164;8.610;2023-04-06T05:40:20;101992.38;;;3.64;60.69
74778;BME280;63298;53.164;8.610;2023-04-06T05:42:47;101981.47;;;3.64;60.29
74778;BME280;63298;53.164;8.610;2023-04-06T05:45:12;101993.22;;;3.65;60.61
74778;BME280;63298;53.164;8.610;2023-04-06T05:47:38;101986.56;;;3.67;60.02
74778;BME280;63298;53.164;8.610;2023-04-06T05:50:03;101990.00;;;3.69;59.88
74778;BME280;63298;53.164;8.610;2023-04-06T05:52:29;101983.34;;;3.72;60.53
74778;BME280;63298;53.164;8.610;2023-04-06T05:54:54;101987.63;;;3.74;60.54
74778;BME280;63298;53.164;8.610;2023-04-06T05:57:20;101982.53;;;3.79;60.28
74778;BME280;63298;53.164;8.610;2023-04-06T05:59:45;101989.19;;;3.85;60.11
74778;BME280;63298;53.164;8.610;2023-04-06T06:02:10;101979.69;;;3.89;59.91
74778;BME280;63298;53.164;8.610;2023-04-06T06:04:36;101978.81;;;3.88;59.85
74778;BME280;63298;53.164;8.610;2023-04-06T06:07:04;101978.63;;;3.90;59.98
74778;BME280;63298;53.164;8.610;2023-04-06T06:09:30;101973.00;;;3.91;59.91
74778;BME280;63298;53.164;8.610;2023-04-06T06:11:56;101982.41;;;3.97;59.98
74778;BME280;63298;53.164;8.610;2023-04-06T06:14:21;101960.56;;;3.89;60.05
74778;BME280;63298;53.164;8.610;2023-04-06T06:16:47;101953.56;;;3.86;60.05
74778;BME280;63298;53.164;8.610;2023-04-06T06:19:13;101985.16;;;3.97;60.14
74778;BME280;63298;53.164;8.610;2023-04-06T06:21:38;101955.25;;;3.79;59.82
74778;BME280;63298;53.164;8.610;2023-04-06T06:24:04;101978.16;;;3.95;60.36
74778;BME280;63298;53.164;8.610;2023-04-06T06:26:29;101953.53;;;3.78;60.47
74778;BME280;63298;53.164;8.610;2023-04-06T06:28:55;101960.72;;;3.87;60.26
74778;BME280;63298;53.164;8.610;2023-04-06T06:31:20;101958.00;;;3.96;60.20
74778;BME280;63298;53.164;8.610;2023-04-06T06:33:46;101963.31;;;3.97;60.39
74778;BME280;63298;53.164;8.610;2023-04-06T06:36:12;101974.09;;;4.07;61.16
74778;BME280;63298;53.164;8.610;2023-04-06T06:38:37;101985.00;;;4.15;60.66
74778;BME280;63298;53.164;8.610;2023-04-06T06:41:02;101967.59;;;4.08;60.52
74778;BME280;63298;53.164;8.610;2023-04-06T06:43:28;101967.59;;;4.08;60.73
74778;BME280;63298;53.164;8.610;2023-04-06T06:45:54;101977.72;;;4.23;61.06
74778;BME280;63298;53.164;8.610;2023-04-06T06:48:19;101974.28;;;4.29;60.94
74778;BME280;63298;53.164;8.610;2023-04-06T06:50:47;101956.72;;;4.24;60.89
74778;BME280;63298;53.164;8.610;2023-04-06T06:53:12;101971.75;;;4.44;61.08
74778;BME280;63298;53.164;8.610;2023-04-06T06:55:38;101968.53;;;4.49;60.88
74778;BME280;63298;53.164;8.610;2023-04-06T06:58:03;101950.09;;;4.43;60.35
74778;BME280;63298;53.164;8.610;2023-04-06T07:00:29;101946.50;;;4.50;60.57
74778;BME280;63298;53.164;8.610;2023-04-06T07:02:57;101943.25;;;4.63;59.96
74778;BME280;63298;53.164;8.610;2023-04-06T07:05:22;101951.44;;;4.71;60.06
74778;BME280;63298;53.164;8.610;2023-04-06T07:07:48;101943.06;;;4.81;59.78
74778;BME280;63298;53.164;8.610;2023-04-06T07:10:13;101924.09;;;4.79;59.47
74778;BME280;63298;53.164;8.610;2023-04-06T07:12:39;101959.28;;;5.06;60.25
74778;BME280;63298;53.164;8.610;2023-04-06T07:15:04;101946.78;;;5.04;59.49
74778;BME280;63298;53.164;8.610;2023-04-06T07:17:30;101934.31;;;5.01;59.42
74778;BME280;63298;53.164;8.610;2023-04-06T07:19:56;101953.25;;;5.19;60.33
74778;BME280;63298;53.164;8.610;2023-04-06T07:22:21;101956.84;;;5.28;59.43
74778;BME280;63298;53.164;8.610;2023-04-06T07:24:47;101953.91;;;5.37;59.23
74778;BME280;63298;53.164;8.610;2023-04-06T07:27:12;101932.69;;;5.39;59.29
74778;BME280;63298;53.164;8.610;2023-04-06T07:29:38;101933.50;;;5.48;60.11
74778;BME280;63298;53.164;8.610;2023-04-06T07:32:03;101919.31;;;5.52;59.88
74778;BME280;63298;53.164;8.610;2023-04-06T07:34:28;101921.94;;;5.69;58.82
74778;BME280;63298;53.164;8.610;2023-04-06T07:36:54;101919.19;;;5.77;59.27
74778;BME280;63298;53.164;8.610;2023-04-06T07:39:20;101931.78;;;5.94;59.08
74778;BME280;63298;53.164;8.610;2023-04-06T07:41:45;101915.28;;;6.02;59.06
74778;BME280;63298;53.164;8.610;2023-04-06T07:44:11;101916.75;;;6.13;58.98
74778;BME280;63298;53.164;8.610;2023-04-06T07:46:36;101922.84;;;6.23;58.69
74778;BME280;63298;53.164;8.610;2023-04-06T07:49:02;101907.09;;;6.25;58.19
74778;BME280;63298;53.164;8.610;2023-04-06T07:51:27;101928.66;;;6.50;58.31
74778;BME280;63298;53.164;8.610;2023-04-06T07:53:53;101905.00;;;6.49;58.07
74778;BME280;63298;53.164;8.610;2023-04-06T07:56:18;101896.53;;;6.59;58.33
74778;BME280;63298;53.164;8.610;2023-04-06T07:58:44;101908.31;;;6.82;57.33
74778;BME280;63298;53.164;8.610;2023-04-06T08:01:10;101913.50;;;6.92;56.28
74778;BME280;63298;53.164;8.610;2023-04-06T08:03:36;101900.78;;;6.99;56.39
74778;BME280;63298;53.164;8.610;2023-04-06T08:06:02;101885.06;;;7.08;55.77
74778;BME280;63298;53.164;8.610;2023-04-06T08:08:28;101902.09;;;7.32;55.71
74778;BME280;63298;53.164;8.610;2023-04-06T08:10:53;101883.56;;;7.34;55.85
74778;BME280;63298;53.164;8.610;2023-04-06T08:13:19;101897.72;;;7.53;54.82
74778;BME280;63298;53.164;8.610;2023-04-06T08:15:44;101898.75;;;7.66;54.97
74778;BME280;63298;53.164;8.610;2023-04-06T08:18:10;101915.94;;;7.90;54.26
74778;BME280;63298;53.164;8.610;2023-04-06T08:20:37;101904.75;;;7.91;54.43
74778;BME280;63298;53.164;8.610;2023-04-06T08:23:02;101913.63;;;8.08;53.91
74778;BME280;63298;53.164;8.610;2023-04-06T08:25:28;101905.47;;;8.00;53.27
74778;BME280;63298;53.164;8.610;2023-04-06T08:27:53;101902.38;;;8.03;51.87
74778;BME280;63298;53.164;8.610;2023-04-06T08:30:19;101876.25;;;7.92;53.13
74778;BME280;63298;53.164;8.610;2023-04-06T08:32:45;101907.34;;;8.14;52.10
74778;BME280;63298;53.164;8.610;2023-04-06T08:35:11;101906.19;;;8.23;53.03
74778;BME280;63298;53.164;8.610;2023-04-06T08:37:37;101881.91;;;8.27;53.60
74778;BME280;63298;53.164;8.610;2023-04-06T08:40:02;101879.28;;;8.40;52.73
74778;BME280;63298;53.164;8.610;2023-04-06T08:42:32;101898.53;;;8.61;52.86
74778;BME280;63298;53.164;8.610;2023-04-06T08:44:59;101903.09;;;8.75;51.96
74778;BME280;63298;53.164;8.610;2023-04-06T08:47:24;101898.50;;;8.82;52.57
74778;BME280;63298;53.164;8.610;2023-04-06T08:49:50;101876.88;;;8.79;52.95
74778;BME280;63298;53.164;8.610;2023-04-06T08:52:18;101879.50;;;8.87;51.98
74778;BME280;63298;53.164;8.610;2023-04-06T08:54:43;101875.13;;;8.99;51.74
74778;BME280;63298;53.164;8.610;2023-04-06T08:57:09;101887.91;;;9.07;52.01
74778;BME280;63298;53.164;8.610;2023-04-06T08:59:35;101890.53;;;9.22;51.87
74778;BME280;63298;53.164;8.610;2023-04-06T09:02:04;101900.81;;;9.41;51.86
74778;BME280;63298;53.164;8.610;2023-04-06T09:04:29;101894.50;;;9.47;51.75
74778;BME280;63298;53.164;8.610;2023-04-06T09:06:55;101891.38;;;9.57;51.20
74778;BME280;63298;53.164;8.610;2023-04-06T09:09:20;101906.44;;;9.67;51.39
74778;BME280;63298;53.164;8.610;2023-04-06T09:11:48;101886.53;;;9.65;50.69
74778;BME280;63298;53.164;8.610;2023-04-06T09:14:14;101889.50;;;9.77;50.60
74778;BME280;63298;53.164;8.610;2023-04-06T09:16:41;101901.47;;;9.90;50.81
74778;BME280;63298;53.164;8.610;2023-04-06T09:19:07;101884.06;;;9.96;50.96
74778;BME280;63298;53.164;8.610;2023-04-06T09:21:32;101891.09;;;9.99;50.08
74778;BME280;63298;53.164;8.610;2023-04-06T09:24:04;101874.34;;;10.01;50.34
74778;BME280;63298;53.164;8.610;2023-04-06T09:26:29;101879.88;;;10.14;50.42
74778;BME280;63298;53.164;8.610;2023-04-06T09:28:58;101871.69;;;10.20;50.40
74778;BME280;63298;53.164;8.610;2023-04-06T09:31:25;101886.53;;;10.26;48.72
74778;BME280;63298;53.164;8.610;2023-04-06T09:33:51;101884.63;;;10.33;49.85
74778;BME280;63298;53.164;8.610;2023-04-06T09:36:17;101869.59;;;10.35;49.45
74778;BME280;63298;53.164;8.610;2023-04-06T09:38:56;101882.09;;;10.51;48.98
74778;BME280;63298;53.164;8.610;2023-04-06T09:41:25;101879.53;;;10.56;48.84
74778;BME280;63298;53.164;8.610;2023-04-06T09:43:52;101869.38;;;10.57;49.27
74778;BME280;63298;53.164;8.610;2023-04-06T09:46:27;101857.25;;;10.71;49.44
74778;BME280;63298;53.164;8.610;2023-04-06T09:48:54;101860.03;;;10.84;48.94
74778;BME280;63298;53.164;8.610;2023-04-06T09:51:20;101870.44;;;10.95;47.76
74778;BME280;63298;53.164;8.610;2023-04-06T09:53:52;101854.72;;;10.82;48.47
74778;BME280;63298;53.164;8.610;2023-04-06T09:56:21;101857.88;;;10.93;48.49
74778;BME280;63298;53.164;8.610;2023-04-06T09:58:49;101868.69;;;11.01;48.27
74778;BME280;63298;53.164;8.610;2023-04-06T10:01:19;101869.53;;;11.14;48.41
74778;BME280;63298;53.164;8.610;2023-04-06T10:06:19;101851.63;;;11.30;48.35
74778;BME280;63298;53.164;8.610;2023-04-06T10:08:47;101844.56;;;11.47;48.34
74778;BME280;63298;53.164;8.610;2023-04-06T10:11:14;101855.38;;;11.55;46.92
74778;BME280;63298;53.164;8.610;2023-04-06T10:13:40;101854.72;;;11.60;48.27
74778;BME280;63298;53.164;8.610;2023-04-06T10:16:06;101848.97;;;11.68;47.80
74778;BME280;63298;53.164;8.610;2023-04-06T10:18:32;101841.75;;;11.74;47.24
74778;BME280;63298;53.164;8.610;2023-04-06T10:21:12;101849.97;;;11.87;46.80
74778;BME280;63298;53.164;8.610;2023-04-06T10:23:49;101844.41;;;11.93;45.89
74778;BME280;63298;53.164;8.610;2023-04-06T10:26:19;101848.78;;;12.07;47.33
74778;BME280;63298;53.164;8.610;2023-04-06T10:28:45;101846.97;;;12.20;45.20
74778;BME280;63298;53.164;8.610;2023-04-06T10:31:11;101844.63;;;12.23;46.66
74778;BME280;63298;53.164;8.610;2023-04-06T10:33:36;101833.13;;;12.26;46.44
74778;BME280;63298;53.164;8.610;2023-04-06T10:36:21;101844.53;;;12.36;46.54
74778;BME280;63298;53.164;8.610;2023-04-06T10:38:46;101840.59;;;12.50;46.31
74778;BME280;63298;53.164;8.610;2023-04-06T10:41:12;101836.94;;;12.57;45.12
74778;BME280;63298;53.164;8.610;2023-04-06T10:43:39;101839.22;;;12.60;45.58
74778;BME280;63298;53.164;8.610;2023-04-06T10:46:06;101834.53;;;12.60;45.37
74778;BME280;63298;53.164;8.610;2023-04-06T10:48:43;101839.78;;;12.68;45.19
74778;BME280;63298;53.164;8.610;2023-04-06T10:51:17;101844.59;;;12.79;43.89
74778;BME280;63298;53.164;8.610;2023-04-06T10:53:47;101835.16;;;12.87;45.51
74778;BME280;63298;53.164;8.610;2023-04-06T10:56:14;101835.66;;;13.02;45.68
74778;BME280;63298;53.164;8.610;2023-04-06T10:58:47;101833.03;;;13.07;44.92
74778;BME280;63298;53.164;8.610;2023-04-06T11:01:15;101830.16;;;13.20;45.04
74778;BME280;63298;53.164;8.610;2023-04-06T11:03:49;101823.97;;;13.18;42.79
74778;BME280;63298;53.164;8.610;2023-04-06T11:06:19;101824.97;;;13.24;44.18
74778;BME280;63298;53.164;8.610;2023-04-06T11:08:44;101811.19;;;13.17;44.74
74778;BME280;63298;53.164;8.610;2023-04-06T11:11:12;101825.31;;;13.16;44.67
74778;BME280;63298;53.164;8.610;2023-04-06T11:13:43;101820.28;;;13.24;44.16
74778;BME280;63298;53.164;8.610;2023-04-06T11:16:15;101822.31;;;13.35;45.29
74778;BME280;63298;53.164;8.610;2023-04-06T11:18:58;101805.19;;;13.38;42.91
74778;BME280;63298;53.164;8.610;2023-04-06T11:21:53;101808.06;;;13.50;43.28
74778;BME280;63298;53.164;8.610;2023-04-06T11:24:23;101806.28;;;13.56;43.95
74778;BME280;63298;53.164;8.610;2023-04-06T11:29:17;101803.94;;;13.71;43.55
74778;BME280;63298;53.164;8.610;2023-04-06T11:31:50;101803.38;;;13.80;42.30
74778;BME280;63298;53.164;8.610;2023-04-06T11:34:21;101798.47;;;13.94;41.91
74778;BME280;63298;53.164;8.610;2023-04-06T11:36:48;101790.38;;;13.93;42.35
74778;BME280;63298;53.164;8.610;2023-04-06T11:39:19;101788.59;;;13.98;41.52
74778;BME280;63298;53.164;8.610;2023-04-06T11:41:54;101788.03;;;14.08;41.50
74778;BME280;63298;53.164;8.610;2023-04-06T11:44:39;101774.50;;;14.00;40.45
74778;BME280;63298;53.164;8.610;2023-04-06T11:47:06;101773.69;;;14.11;42.16
74778;BME280;63298;53.164;8.610;2023-04-06T11:49:33;101773.25;;;14.25;41.65
74778;BME280;63298;53.164;8.610;2023-04-06T11:51:59;101785.34;;;14.43;42.04
74778;BME280;63298;53.164;8.610;2023-04-06T11:54:35;101777.50;;;14.51;39.90
74778;BME280;63298;53.164;8.610;2023-04-06T11:57:04;101773.78;;;14.57;41.92
74778;BME280;63298;53.164;8.610;2023-04-06T11:59:30;101770.75;;;14.70;41.47
74778;BME280;63298;53.164;8.610;2023-04-06T12:01:57;101775.69;;;14.80;41.43
74778;BME280;63298;53.164;8.610;2023-04-06T12:04:22;101768.94;;;14.76;40.65
74778;BME280;63298;53.164;8.610;2023-04-06T12:06:48;101766.16;;;14.76;40.75
74778;BME280;63298;53.164;8.610;2023-04-06T12:09:13;101768.34;;;14.86;40.62
74778;BME280;63298;53.164;8.610;2023-04-06T12:11:39;101764.19;;;15.00;40.91
74778;BME280;63298;53.164;8.610;2023-04-06T12:14:04;101754.91;;;15.06;40.12
74778;BME280;63298;53.164;8.610;2023-04-06T12:16:30;101763.34;;;15.11;39.92
74778;BME280;63298;53.164;8.610;2023-04-06T12:18:56;101751.25;;;15.17;40.38
74778;BME280;63298;53.164;8.610;2023-04-06T12:21:21;101745.19;;;15.20;39.93
74778;BME280;63298;53.164;8.610;2023-04-06T12:23:47;101744.13;;;15.21;39.95
74778;BME280;63298;53.164;8.610;2023-04-06T12:26:12;101742.41;;;15.32;40.25
74778;BME280;63298;53.164;8.610;2023-04-06T12:28:37;101735.44;;;15.46;40.11
74778;BME280;63298;53.164;8.610;2023-04-06T12:31:03;101724.66;;;15.49;39.46
74778;BME280;63298;53.164;8.610;2023-04-06T12:33:28;101727.59;;;15.54;39.38
74778;BME280;63298;53.164;8.610;2023-04-06T12:35:53;101722.97;;;15.60;38.76
74778;BME280;63298;53.164;8.610;2023-04-06T12:38:19;101722.50;;;15.63;38.26
74778;BME280;63298;53.164;8.610;2023-04-06T12:40:44;101728.63;;;15.65;37.59
74778;BME280;63298;53.164;8.610;2023-04-06T12:43:10;101731.94;;;15.79;38.79
74778;BME280;63298;53.164;8.610;2023-04-06T12:45:35;101719.44;;;15.93;38.55
74778;BME280;63298;53.164;8.610;2023-04-06T12:48:00;101707.78;;;15.96;38.30
74778;BME280;63298;53.164;8.610;2023-04-06T12:50:26;101724.66;;;16.06;37.79
74778;BME280;63298;53.164;8.610;2023-04-06T12:52:51;101717.72;;;16.09;37.70
74778;BME280;63298;53.164;8.610;2023-04-06T12:55:17;101719.69;;;16.08;37.42
74778;BME280;63298;53.164;8.610;2023-04-06T12:57:42;101722.28;;;16.15;37.94